Terminal Aerodrome Forecast
Issued by NWS Tuscon, AZ

Home | Current Version | Previous Version | Text Only | Print | Product List | Glossary On
Versions: 1 2 3 4 5 6 7 8 9 10 11 12
000
FTUS45 KTWC 302333
TAFDUG
TAF
KDUG 302333Z 3100/3124 29008KT P6SM FEW120
     FM310300 23007KT P6SM SCT250
     FM310700 08011KT P6SM SCT250
     FM311500 13007KT P6SM SCT250
     FM312000 23009KT P6SM SCT120 SCT250=

USA.gov is the U.S. government's official web portal to all federal, state and local government web resources and services.